sensor_id;sensor_type;location;lat;lon;timestamp;P1;P2;P0
70243;PMS7003;57634;51.136;17.024;2023-06-24T00:00:18;12;11;8
70243;PMS7003;57634;51.136;17.024;2023-06-24T00:03:24;12;11;8
70243;PMS7003;57634;51.136;17.024;2023-06-24T00:06:25;13;11;8
70243;PMS7003;57634;51.136;17.024;2023-06-24T00:09:27;11;11;7
70243;PMS7003;57634;51.136;17.024;2023-06-24T00:12:28;10;10;7
70243;PMS7003;57634;51.136;17.024;2023-06-24T00:15:29;11;11;8
70243;PMS7003;57634;51.136;17.024;2023-06-24T00:18:30;10;10;6
70243;PMS7003;57634;51.136;17.024;2023-06-24T00:21:31;10;9;6
70243;PMS7003;57634;51.136;17.024;2023-06-24T00:24:32;13;11;7
70243;PMS7003;57634;51.136;17.024;2023-06-24T00:27:33;10;9;6
70243;PMS7003;57634;51.136;17.024;2023-06-24T00:31:03;10;8;7
70243;PMS7003;57634;51.136;17.024;2023-06-24T00:34:04;10;9;6
70243;PMS7003;57634;51.136;17.024;2023-06-24T00:37:06;11;10;7
70243;PMS7003;57634;51.136;17.024;2023-06-24T00:40:07;10;9;6
70243;PMS7003;57634;51.136;17.024;2023-06-24T00:43:17;10;9;6
70243;PMS7003;57634;51.136;17.024;2023-06-24T00:46:18;9;9;7
70243;PMS7003;57634;51.136;17.024;2023-06-24T00:49:20;9;8;6
70243;PMS7003;57634;51.136;17.024;2023-06-24T00:52:21;8;8;5
70243;PMS7003;57634;51.136;17.024;2023-06-24T00:55:22;11;8;6
70243;PMS7003;57634;51.136;17.024;2023-06-24T00:58:24;8;8;6
70243;PMS7003;57634;51.136;17.024;2023-06-24T01:01:25;7;7;5
70243;PMS7003;57634;51.136;17.024;2023-06-24T01:04:26;10;10;7
70243;PMS7003;57634;51.136;17.024;2023-06-24T01:07:27;8;7;6
70243;PMS7003;57634;51.136;17.024;2023-06-24T01:10:56;8;7;6
70243;PMS7003;57634;51.136;17.024;2023-06-24T01:13:57;9;8;5
70243;PMS7003;57634;51.136;17.024;2023-06-24T01:26:49;8;8;5
70243;PMS7003;57634;51.136;17.024;2023-06-24T01:33:39;4;4;3
70243;PMS7003;57634;51.136;17.024;2023-06-24T01:36:52;3;3;3
70243;PMS7003;57634;51.136;17.024;2023-06-24T01:43:38;4;3;3
70243;PMS7003;57634;51.136;17.024;2023-06-24T01:46:44;3;3;2
70243;PMS7003;57634;51.136;17.024;2023-06-24T01:49:49;4;3;2
70243;PMS7003;57634;51.136;17.024;2023-06-24T01:52:54;3;3;2
70243;PMS7003;57634;51.136;17.024;2023-06-24T01:55:57;3;3;2
70243;PMS7003;57634;51.136;17.024;2023-06-24T01:59:01;4;3;2
70243;PMS7003;57634;51.136;17.024;2023-06-24T02:02:05;3;3;2
70243;PMS7003;57634;51.136;17.024;2023-06-24T02:05:08;3;3;2
70243;PMS7003;57634;51.136;17.024;2023-06-24T02:08:10;3;3;2
70243;PMS7003;57634;51.136;17.024;2023-06-24T02:11:41;3;3;3
70243;PMS7003;57634;51.136;17.024;2023-06-24T02:14:44;3;3;3
70243;PMS7003;57634;51.136;17.024;2023-06-24T02:17:45;3;3;2
70243;PMS7003;57634;51.136;17.024;2023-06-24T02:20:51;3;3;2
70243;PMS7003;57634;51.136;17.024;2023-06-24T02:23:53;5;3;2
70243;PMS7003;57634;51.136;17.024;2023-06-24T02:26:56;4;3;3
70243;PMS7003;57634;51.136;17.024;2023-06-24T02:29:58;4;3;2
70243;PMS7003;57634;51.136;17.024;2023-06-24T02:33:00;3;3;2
70243;PMS7003;57634;51.136;17.024;2023-06-24T02:36:02;3;3;1
70243;PMS7003;57634;51.136;17.024;2023-06-24T02:39:03;3;3;2
70243;PMS7003;57634;51.136;17.024;2023-06-24T02:42:05;1;1;0
70243;PMS7003;57634;51.136;17.024;2023-06-24T02:45:07;3;3;2
70243;PMS7003;57634;51.136;17.024;2023-06-24T02:48:34;3;3;2
70243;PMS7003;57634;51.136;17.024;2023-06-24T02:51:38;3;3;2
70243;PMS7003;57634;51.136;17.024;2023-06-24T02:54:40;2;2;1
70243;PMS7003;57634;51.136;17.024;2023-06-24T02:57:42;3;3;1
70243;PMS7003;57634;51.136;17.024;2023-06-24T03:00:44;2;2;1
70243;PMS7003;57634;51.136;17.024;2023-06-24T03:03:46;5;4;2
70243;PMS7003;57634;51.136;17.024;2023-06-24T03:06:49;2;2;2
70243;PMS7003;57634;51.136;17.024;2023-06-24T03:09:52;1;1;1
70243;PMS7003;57634;51.136;17.024;2023-06-24T03:12:54;3;2;2
70243;PMS7003;57634;51.136;17.024;2023-06-24T03:15:55;3;2;1
70243;PMS7003;57634;51.136;17.024;2023-06-24T03:18:56;2;2;1
70243;PMS7003;57634;51.136;17.024;2023-06-24T03:21:57;3;3;2
70243;PMS7003;57634;51.136;17.024;2023-06-24T03:24:58;2;2;1
70243;PMS7003;57634;51.136;17.024;2023-06-24T03:27:59;3;3;1
70243;PMS7003;57634;51.136;17.024;2023-06-24T03:31:27;2;2;1
70243;PMS7003;57634;51.136;17.024;2023-06-24T03:34:28;3;3;2
70243;PMS7003;57634;51.136;17.024;2023-06-24T03:37:30;2;2;1
70243;PMS7003;57634;51.136;17.024;2023-06-24T03:40:31;3;3;1
70243;PMS7003;57634;51.136;17.024;2023-06-24T03:43:32;3;3;2
70243;PMS7003;57634;51.136;17.024;2023-06-24T03:46:34;3;3;2
70243;PMS7003;57634;51.136;17.024;2023-06-24T03:49:35;3;3;2
70243;PMS7003;57634;51.136;17.024;2023-06-24T03:52:36;2;2;1
70243;PMS7003;57634;51.136;17.024;2023-06-24T03:55:37;2;2;1
70243;PMS7003;57634;51.136;17.024;2023-06-24T03:58:38;3;3;1
70243;PMS7003;57634;51.136;17.024;2023-06-24T04:01:39;3;3;2
70243;PMS7003;57634;51.136;17.024;2023-06-24T04:04:41;3;3;2
70243;PMS7003;57634;51.136;17.024;2023-06-24T04:07:42;4;3;1
70243;PMS7003;57634;51.136;17.024;2023-06-24T04:10:47;2;2;2
70243;PMS7003;57634;51.136;17.024;2023-06-24T04:14:15;3;3;1
70243;PMS7003;57634;51.136;17.024;2023-06-24T04:17:16;2;2;1
70243;PMS7003;57634;51.136;17.024;2023-06-24T04:20:17;2;2;1
70243;PMS7003;57634;51.136;17.024;2023-06-24T04:23:18;2;1;1
70243;PMS7003;57634;51.136;17.024;2023-06-24T04:26:19;1;1;1
70243;PMS7003;57634;51.136;17.024;2023-06-24T04:29:20;1;0;0
70243;PMS7003;57634;51.136;17.024;2023-06-24T04:32:21;0;0;0
70243;PMS7003;57634;51.136;17.024;2023-06-24T04:35:23;2;1;1
70243;PMS7003;57634;51.136;17.024;2023-06-24T04:38:25;2;2;1
70243;PMS7003;57634;51.136;17.024;2023-06-24T04:41:27;1;1;0
70243;PMS7003;57634;51.136;17.024;2023-06-24T04:44:28;1;1;0
70243;PMS7003;57634;51.136;17.024;2023-06-24T04:47:29;1;1;0
70243;PMS7003;57634;51.136;17.024;2023-06-24T04:50:31;1;1;0
70243;PMS7003;57634;51.136;17.024;2023-06-24T04:53:32;1;1;0
70243;PMS7003;57634;51.136;17.024;2023-06-24T04:57:05;2;2;0
70243;PMS7003;57634;51.136;17.024;2023-06-24T05:00:09;0;0;0
70243;PMS7003;57634;51.136;17.024;2023-06-24T05:03:10;2;1;0
70243;PMS7003;57634;51.136;17.024;2023-06-24T05:06:11;1;1;1
70243;PMS7003;57634;51.136;17.024;2023-06-24T05:09:13;1;1;0
70243;PMS7003;57634;51.136;17.024;2023-06-24T05:12:14;1;1;0
70243;PMS7003;57634;51.136;17.024;2023-06-24T05:15:16;3;2;1
70243;PMS7003;57634;51.136;17.024;2023-06-24T05:18:17;2;2;1
70243;PMS7003;57634;51.136;17.024;2023-06-24T05:21:18;1;0;0
70243;PMS7003;57634;51.136;17.024;2023-06-24T05:24:19;2;1;0
70243;PMS7003;57634;51.136;17.024;2023-06-24T05:27:20;1;1;0
70243;PMS7003;57634;51.136;17.024;2023-06-24T05:30:22;1;1;1
70243;PMS7003;57634;51.136;17.024;2023-06-24T05:33:23;1;1;0
70243;PMS7003;57634;51.136;17.024;2023-06-24T05:36:24;2;2;1
70243;PMS7003;57634;51.136;17.024;2023-06-24T05:39:51;0;0;0
70243;PMS7003;57634;51.136;17.024;2023-06-24T05:42:53;1;0;0
70243;PMS7003;57634;51.136;17.024;2023-06-24T05:45:54;0;0;0
70243;PMS7003;57634;51.136;17.024;2023-06-24T05:48:56;0;0;0
70243;PMS7003;57634;51.136;17.024;2023-06-24T05:51:58;0;0;0
70243;PMS7003;57634;51.136;17.024;2023-06-24T05:54:59;1;1;0
70243;PMS7003;57634;51.136;17.024;2023-06-24T05:58:00;1;1;0
70243;PMS7003;57634;51.136;17.024;2023-06-24T06:01:01;0;0;0
70243;PMS7003;57634;51.136;17.024;2023-06-24T06:04:02;1;1;0
70243;PMS7003;57634;51.136;17.024;2023-06-24T06:07:04;1;1;0
70243;PMS7003;57634;51.136;17.024;2023-06-24T06:10:06;1;1;0
70243;PMS7003;57634;51.136;17.024;2023-06-24T06:13:08;1;1;1
70243;PMS7003;57634;51.136;17.024;2023-06-24T06:16:09;1;1;0
70243;PMS7003;57634;51.136;17.024;2023-06-24T06:19:14;1;1;0
70243;PMS7003;57634;51.136;17.024;2023-06-24T06:22:41;0;0;0
70243;PMS7003;57634;51.136;17.024;2023-06-24T06:25:43;2;2;1
70243;PMS7003;57634;51.136;17.024;2023-06-24T06:28:44;1;1;0
70243;PMS7003;57634;51.136;17.024;2023-06-24T06:31:48;1;1;0
70243;PMS7003;57634;51.136;17.024;2023-06-24T06:34:49;1;1;1
70243;PMS7003;57634;51.136;17.024;2023-06-24T06:37:51;3;2;1
70243;PMS7003;57634;51.136;17.024;2023-06-24T06:40:55;2;2;1
70243;PMS7003;57634;51.136;17.024;2023-06-24T06:43:56;4;4;3
70243;PMS7003;57634;51.136;17.024;2023-06-24T06:46:58;3;3;2
70243;PMS7003;57634;51.136;17.024;2023-06-24T06:49:59;2;2;2
70243;PMS7003;57634;51.136;17.024;2023-06-24T06:53:00;4;3;3
70243;PMS7003;57634;51.136;17.024;2023-06-24T06:56:01;3;2;1
70243;PMS7003;57634;51.136;17.024;2023-06-24T06:59:02;3;3;2
70243;PMS7003;57634;51.136;17.024;2023-06-24T07:02:32;2;2;1
70243;PMS7003;57634;51.136;17.024;2023-06-24T07:05:33;3;3;1
70243;PMS7003;57634;51.136;17.024;2023-06-24T07:08:34;3;3;1
70243;PMS7003;57634;51.136;17.024;2023-06-24T07:11:36;2;2;1
70243;PMS7003;57634;51.136;17.024;2023-06-24T07:14:37;3;2;1
70243;PMS7003;57634;51.136;17.024;2023-06-24T07:17:39;3;3;2
70243;PMS7003;57634;51.136;17.024;2023-06-24T07:20:41;3;3;1
70243;PMS7003;57634;51.136;17.024;2023-06-24T07:23:43;1;1;1
70243;PMS7003;57634;51.136;17.024;2023-06-24T07:26:44;4;3;2
70243;PMS7003;57634;51.136;17.024;2023-06-24T07:29:45;3;3;3
70243;PMS7003;57634;51.136;17.024;2023-06-24T07:32:47;2;2;1
70243;PMS7003;57634;51.136;17.024;2023-06-24T07:35:48;0;0;0
70243;PMS7003;57634;51.136;17.024;2023-06-24T07:38:49;2;2;1
70243;PMS7003;57634;51.136;17.024;2023-06-24T07:41:51;3;3;2
70243;PMS7003;57634;51.136;17.024;2023-06-24T07:45:21;5;5;3
70243;PMS7003;57634;51.136;17.024;2023-06-24T07:48:22;3;3;2
70243;PMS7003;57634;51.136;17.024;2023-06-24T07:51:23;3;3;2
70243;PMS7003;57634;51.136;17.024;2023-06-24T07:54:25;4;3;2
70243;PMS7003;57634;51.136;17.024;2023-06-24T07:57:26;3;3;2
70243;PMS7003;57634;51.136;17.024;2023-06-24T08:00:28;4;4;3
70243;PMS7003;57634;51.136;17.024;2023-06-24T08:03:29;3;3;2
70243;PMS7003;57634;51.136;17.024;2023-06-24T08:06:31;3;3;2
70243;PMS7003;57634;51.136;17.024;2023-06-24T08:09:32;7;5;3
70243;PMS7003;57634;51.136;17.024;2023-06-24T08:12:33;4;3;3
70243;PMS7003;57634;51.136;17.024;2023-06-24T08:15:34;3;3;3
70243;PMS7003;57634;51.136;17.024;2023-06-24T08:18:35;7;6;4
70243;PMS7003;57634;51.136;17.024;2023-06-24T08:21:37;4;4;3
70243;PMS7003;57634;51.136;17.024;2023-06-24T08:24:39;6;4;3
70243;PMS7003;57634;51.136;17.024;2023-06-24T08:28:09;5;5;4
70243;PMS7003;57634;51.136;17.024;2023-06-24T08:31:11;5;5;3
70243;PMS7003;57634;51.136;17.024;2023-06-24T08:34:12;4;4;3
70243;PMS7003;57634;51.136;17.024;2023-06-24T08:37:14;4;4;2
70243;PMS7003;57634;51.136;17.024;2023-06-24T08:40:16;4;4;4
70243;PMS7003;57634;51.136;17.024;2023-06-24T08:43:18;5;5;4
70243;PMS7003;57634;51.136;17.024;2023-06-24T08:46:24;5;5;4
70243;PMS7003;57634;51.136;17.024;2023-06-24T08:49:29;5;5;4
70243;PMS7003;57634;51.136;17.024;2023-06-24T08:52:32;5;5;4
70243;PMS7003;57634;51.136;17.024;2023-06-24T08:55:39;4;4;4
70243;PMS7003;57634;51.136;17.024;2023-06-24T08:59:09;5;5;3
70243;PMS7003;57634;51.136;17.024;2023-06-24T09:02:11;5;4;3
70243;PMS7003;57634;51.136;17.024;2023-06-24T09:05:14;7;6;4
70243;PMS7003;57634;51.136;17.024;2023-06-24T09:08:15;7;6;5
70243;PMS7003;57634;51.136;17.024;2023-06-24T09:11:16;7;6;4
70243;PMS7003;57634;51.136;17.024;2023-06-24T09:14:24;8;7;5
70243;PMS7003;57634;51.136;17.024;2023-06-24T09:17:26;6;6;4
70243;PMS7003;57634;51.136;17.024;2023-06-24T09:20:29;8;7;5
70243;PMS7003;57634;51.136;17.024;2023-06-24T09:23:35;6;6;5
70243;PMS7003;57634;51.136;17.024;2023-06-24T09:26:38;6;6;4
70243;PMS7003;57634;51.136;17.024;2023-06-24T09:29:39;5;5;4
70243;PMS7003;57634;51.136;17.024;2023-06-24T09:33:10;7;7;4
70243;PMS7003;57634;51.136;17.024;2023-06-24T09:36:16;7;6;4
70243;PMS7003;57634;51.136;17.024;2023-06-24T09:39:17;8;5;4
70243;PMS7003;57634;51.136;17.024;2023-06-24T09:42:20;7;5;5
70243;PMS7003;57634;51.136;17.024;2023-06-24T09:45:26;7;7;5
70243;PMS7003;57634;51.136;17.024;2023-06-24T09:48:29;6;5;3
70243;PMS7003;57634;51.136;17.024;2023-06-24T09:51:32;8;8;5
70243;PMS7003;57634;51.136;17.024;2023-06-24T09:54:37;8;7;6
70243;PMS7003;57634;51.136;17.024;2023-06-24T09:57:39;8;7;5
70243;PMS7003;57634;51.136;17.024;2023-06-24T10:01:09;9;8;6
70243;PMS7003;57634;51.136;17.024;2023-06-24T10:04:13;8;8;6
70243;PMS7003;57634;51.136;17.024;2023-06-24T10:07:17;8;8;6
70243;PMS7003;57634;51.136;17.024;2023-06-24T10:10:18;6;6;5
70243;PMS7003;57634;51.136;17.024;2023-06-24T10:13:20;9;9;6
70243;PMS7003;57634;51.136;17.024;2023-06-24T10:16:21;7;6;5
70243;PMS7003;57634;51.136;17.024;2023-06-24T10:19:23;6;6;5
70243;PMS7003;57634;51.136;17.024;2023-06-24T10:22:24;7;6;5
70243;PMS7003;57634;51.136;17.024;2023-06-24T10:25:35;7;7;5
70243;PMS7003;57634;51.136;17.024;2023-06-24T10:32:17;7;6;5
70243;PMS7003;57634;51.136;17.024;2023-06-24T10:35:21;8;8;4
70243;PMS7003;57634;51.136;17.024;2023-06-24T10:38:30;8;7;4
70243;PMS7003;57634;51.136;17.024;2023-06-24T10:41:31;7;7;4
70243;PMS7003;57634;51.136;17.024;2023-06-24T10:44:44;7;6;4
70243;PMS7003;57634;51.136;17.024;2023-06-24T10:47:49;7;7;5
70243;PMS7003;57634;51.136;17.024;2023-06-24T10:50:53;7;6;4
70243;PMS7003;57634;51.136;17.024;2023-06-24T10:53:55;7;6;5
70243;PMS7003;57634;51.136;17.024;2023-06-24T10:57:23;8;7;5
70243;PMS7003;57634;51.136;17.024;2023-06-24T11:00:25;7;6;4
70243;PMS7003;57634;51.136;17.024;2023-06-24T11:03:27;6;6;3
70243;PMS7003;57634;51.136;17.024;2023-06-24T11:06:34;4;4;3
70243;PMS7003;57634;51.136;17.024;2023-06-24T11:09:35;1;1;0
70243;PMS7003;57634;51.136;17.024;2023-06-24T11:12:37;3;3;2
70243;PMS7003;57634;51.136;17.024;2023-06-24T11:15:40;4;4;2
70243;PMS7003;57634;51.136;17.024;2023-06-24T11:18:42;5;5;4
70243;PMS7003;57634;51.136;17.024;2023-06-24T11:21:43;3;3;2
70243;PMS7003;57634;51.136;17.024;2023-06-24T11:24:45;4;4;3
70243;PMS7003;57634;51.136;17.024;2023-06-24T11:27:46;5;4;3
70243;PMS7003;57634;51.136;17.024;2023-06-24T11:30:47;4;4;2
70243;PMS7003;57634;51.136;17.024;2023-06-24T11:34:15;4;4;3
70243;PMS7003;57634;51.136;17.024;2023-06-24T11:37:18;4;4;3
70243;PMS7003;57634;51.136;17.024;2023-06-24T11:40:19;5;5;3
70243;PMS7003;57634;51.136;17.024;2023-06-24T11:43:21;5;5;3
70243;PMS7003;57634;51.136;17.024;2023-06-24T11:46:27;5;5;4
70243;PMS7003;57634;51.136;17.024;2023-06-24T11:52:50;7;5;4
70243;PMS7003;57634;51.136;17.024;2023-06-24T11:55:53;4;4;3
70243;PMS7003;57634;51.136;17.024;2023-06-24T11:59:23;4;4;3
70243;PMS7003;57634;51.136;17.024;2023-06-24T12:02:27;6;6;4
70243;PMS7003;57634;51.136;17.024;2023-06-24T12:05:30;4;4;3
70243;PMS7003;57634;51.136;17.024;2023-06-24T12:08:32;6;6;4
70243;PMS7003;57634;51.136;17.024;2023-06-24T12:11:33;5;4;4
70243;PMS7003;57634;51.136;17.024;2023-06-24T12:14:34;5;5;4
70243;PMS7003;57634;51.136;17.024;2023-06-24T12:17:35;4;4;3
70243;PMS7003;57634;51.136;17.024;2023-06-24T12:20:36;4;4;3
70243;PMS7003;57634;51.136;17.024;2023-06-24T12:23:37;5;4;4
70243;PMS7003;57634;51.136;17.024;2023-06-24T12:26:39;5;5;3
70243;PMS7003;57634;51.136;17.024;2023-06-24T12:29:40;5;5;3
70243;PMS7003;57634;51.136;17.024;2023-06-24T12:32:42;7;6;4
70243;PMS7003;57634;51.136;17.024;2023-06-24T12:35:45;7;5;3
70243;PMS7003;57634;51.136;17.024;2023-06-24T12:39:13;4;4;3
70243;PMS7003;57634;51.136;17.024;2023-06-24T12:42:14;6;6;4
70243;PMS7003;57634;51.136;17.024;2023-06-24T12:45:15;5;5;4
70243;PMS7003;57634;51.136;17.024;2023-06-24T12:48:17;5;5;4
70243;PMS7003;57634;51.136;17.024;2023-06-24T12:51:18;3;3;2
70243;PMS7003;57634;51.136;17.024;2023-06-24T12:54:19;5;4;3
70243;PMS7003;57634;51.136;17.024;2023-06-24T12:57:21;5;5;3
70243;PMS7003;57634;51.136;17.024;2023-06-24T13:00:23;3;3;2
70243;PMS7003;57634;51.136;17.024;2023-06-24T13:03:25;7;7;5
70243;PMS7003;57634;51.136;17.024;2023-06-24T13:06:26;4;4;3
70243;PMS7003;57634;51.136;17.024;2023-06-24T13:09:27;4;4;3
70243;PMS7003;57634;51.136;17.024;2023-06-24T13:13:41;5;5;4
70243;PMS7003;57634;51.136;17.024;2023-06-24T13:16:42;5;5;4
70243;PMS7003;57634;51.136;17.024;2023-06-24T13:19:43;5;5;3
70243;PMS7003;57634;51.136;17.024;2023-06-24T13:22:44;6;6;4
70243;PMS7003;57634;51.136;17.024;2023-06-24T13:25:46;5;5;4
70243;PMS7003;57634;51.136;17.024;2023-06-24T13:28:47;4;4;4
70243;PMS7003;57634;51.136;17.024;2023-06-24T13:31:49;5;5;4
70243;PMS7003;57634;51.136;17.024;2023-06-24T13:34:51;5;5;4
70243;PMS7003;57634;51.136;17.024;2023-06-24T13:37:53;5;4;3
70243;PMS7003;57634;51.136;17.024;2023-06-24T13:40:54;5;5;4
70243;PMS7003;57634;51.136;17.024;2023-06-24T13:43:56;5;4;3
70243;PMS7003;57634;51.136;17.024;2023-06-24T13:46:58;5;5;3
70243;PMS7003;57634;51.136;17.024;2023-06-24T13:49:59;6;6;4
70243;PMS7003;57634;51.136;17.024;2023-06-24T13:53:29;5;4;4
70243;PMS7003;57634;51.136;17.024;2023-06-24T13:56:30;6;6;3
70243;PMS7003;57634;51.136;17.024;2023-06-24T13:59:31;4;4;3
70243;PMS7003;57634;51.136;17.024;2023-06-24T14:02:32;4;4;3
70243;PMS7003;57634;51.136;17.024;2023-06-24T14:05:34;6;5;4
70243;PMS7003;57634;51.136;17.024;2023-06-24T14:08:35;6;4;4
70243;PMS7003;57634;51.136;17.024;2023-06-24T14:11:36;4;4;3
70243;PMS7003;57634;51.136;17.024;2023-06-24T14:14:38;5;5;4
70243;PMS7003;57634;51.136;17.024;2023-06-24T14:17:39;5;5;4
70243;PMS7003;57634;51.136;17.024;2023-06-24T14:20:40;5;5;4
70243;PMS7003;57634;51.136;17.024;2023-06-24T14:23:42;4;4;3
70243;PMS7003;57634;51.136;17.024;2023-06-24T14:26:43;4;4;3
70243;PMS7003;57634;51.136;17.024;2023-06-24T14:29:49;4;4;3
70243;PMS7003;57634;51.136;17.024;2023-06-24T14:32:51;6;5;3
70243;PMS7003;57634;51.136;17.024;2023-06-24T14:36:17;4;4;3
70243;PMS7003;57634;51.136;17.024;2023-06-24T14:39:19;5;5;3
70243;PMS7003;57634;51.136;17.024;2023-06-24T14:42:20;4;4;3
70243;PMS7003;57634;51.136;17.024;2023-06-24T14:45:22;4;4;3
70243;PMS7003;57634;51.136;17.024;2023-06-24T14:48:23;5;5;4
70243;PMS7003;57634;51.136;17.024;2023-06-24T14:51:24;5;5;4
70243;PMS7003;57634;51.136;17.024;2023-06-24T14:54:25;4;4;3
70243;PMS7003;57634;51.136;17.024;2023-06-24T14:57:26;5;4;3
70243;PMS7003;57634;51.136;17.024;2023-06-24T15:00:28;3;3;2
70243;PMS7003;57634;51.136;17.024;2023-06-24T15:03:30;5;5;4
70243;PMS7003;57634;51.136;17.024;2023-06-24T15:06:32;5;5;4
70243;PMS7003;57634;51.136;17.024;2023-06-24T15:09:33;4;4;3
70243;PMS7003;57634;51.136;17.024;2023-06-24T15:12:35;5;5;4
70243;PMS7003;57634;51.136;17.024;2023-06-24T15:15:36;6;5;3
70243;PMS7003;57634;51.136;17.024;2023-06-24T15:19:05;5;5;4
70243;PMS7003;57634;51.136;17.024;2023-06-24T15:22:06;5;5;4
70243;PMS7003;57634;51.136;17.024;2023-06-24T15:25:07;5;5;4
70243;PMS7003;57634;51.136;17.024;2023-06-24T15:28:09;6;5;4
70243;PMS7003;57634;51.136;17.024;2023-06-24T15:31:10;6;5;3
70243;PMS7003;57634;51.136;17.024;2023-06-24T15:34:12;7;6;4
70243;PMS7003;57634;51.136;17.024;2023-06-24T15:37:14;6;6;5
70243;PMS7003;57634;51.136;17.024;2023-06-24T15:40:15;6;6;4
70243;PMS7003;57634;51.136;17.024;2023-06-24T15:43:16;6;6;3
70243;PMS7003;57634;51.136;17.024;2023-06-24T15:46:17;5;4;4
70243;PMS7003;57634;51.136;17.024;2023-06-24T15:49:19;5;4;3
70243;PMS7003;57634;51.136;17.024;2023-06-24T15:52:20;5;5;4
70243;PMS7003;57634;51.136;17.024;2023-06-24T15:55:22;4;4;3
70243;PMS7003;57634;51.136;17.024;2023-06-24T15:58:24;5;5;4
70243;PMS7003;57634;51.136;17.024;2023-06-24T16:01:52;5;5;3
70243;PMS7003;57634;51.136;17.024;2023-06-24T16:04:53;5;5;3
70243;PMS7003;57634;51.136;17.024;2023-06-24T16:07:54;5;5;3
70243;PMS7003;57634;51.136;17.024;2023-06-24T16:10:56;6;6;4
70243;PMS7003;57634;51.136;17.024;2023-06-24T16:14:01;4;4;3
70243;PMS7003;57634;51.136;17.024;2023-06-24T16:17:02;5;5;4
70243;PMS7003;57634;51.136;17.024;2023-06-24T16:20:04;10;10;8
70243;PMS7003;57634;51.136;17.024;2023-06-24T16:23:07;6;6;4
70243;PMS7003;57634;51.136;17.024;2023-06-24T16:26:08;13;13;10
70243;PMS7003;57634;51.136;17.024;2023-06-24T16:29:10;7;7;5
70243;PMS7003;57634;51.136;17.024;2023-06-24T16:32:11;6;6;4
70243;PMS7003;57634;51.136;17.024;2023-06-24T16:35:12;5;5;4
70243;PMS7003;57634;51.136;17.024;2023-06-24T16:38:14;5;5;4
70243;PMS7003;57634;51.136;17.024;2023-06-24T16:41:44;6;6;5
70243;PMS7003;57634;51.136;17.024;2023-06-24T16:44:45;6;6;4
70243;PMS7003;57634;51.136;17.024;2023-06-24T16:47:47;5;5;3
70243;PMS7003;57634;51.136;17.024;2023-06-24T16:50:49;3;3;3
70243;PMS7003;57634;51.136;17.024;2023-06-24T16:53:50;5;5;4
70243;PMS7003;57634;51.136;17.024;2023-06-24T16:56:52;4;4;4
70243;PMS7003;57634;51.136;17.024;2023-06-24T16:59:54;5;5;4
70243;PMS7003;57634;51.136;17.024;2023-06-24T17:02:55;5;4;4
70243;PMS7003;57634;51.136;17.024;2023-06-24T17:05:56;5;5;4
70243;PMS7003;57634;51.136;17.024;2023-06-24T17:08:57;6;5;4
70243;PMS7003;57634;51.136;17.024;2023-06-24T17:11:59;5;5;4
70243;PMS7003;57634;51.136;17.024;2023-06-24T17:15:03;6;6;5
70243;PMS7003;57634;51.136;17.024;2023-06-24T17:18:06;6;6;5
70243;PMS7003;57634;51.136;17.024;2023-06-24T17:21:33;7;6;5
70243;PMS7003;57634;51.136;17.024;2023-06-24T17:24:37;8;7;5
70243;PMS7003;57634;51.136;17.024;2023-06-24T17:27:38;7;6;4
70243;PMS7003;57634;51.136;17.024;2023-06-24T17:30:39;7;6;5
70243;PMS7003;57634;51.136;17.024;2023-06-24T17:33:40;6;5;4
70243;PMS7003;57634;51.136;17.024;2023-06-24T17:36:42;6;6;5
70243;PMS7003;57634;51.136;17.024;2023-06-24T17:39:43;7;7;6
70243;PMS7003;57634;51.136;17.024;2023-06-24T17:42:44;7;6;5
70243;PMS7003;57634;51.136;17.024;2023-06-24T17:45:45;7;6;5
70243;PMS7003;57634;51.136;17.024;2023-06-24T17:48:47;6;5;4
70243;PMS7003;57634;51.136;17.024;2023-06-24T17:51:48;6;6;4
70243;PMS7003;57634;51.136;17.024;2023-06-24T17:54:49;7;6;5
70243;PMS7003;57634;51.136;17.024;2023-06-24T17:57:51;6;6;5
70243;PMS7003;57634;51.136;17.024;2023-06-24T18:00:52;8;8;5
70243;PMS7003;57634;51.136;17.024;2023-06-24T18:04:21;9;9;5
70243;PMS7003;57634;51.136;17.024;2023-06-24T18:07:23;8;7;5
70243;PMS7003;57634;51.136;17.024;2023-06-24T18:10:24;6;6;5
70243;PMS7003;57634;51.136;17.024;2023-06-24T18:13:26;7;7;5
70243;PMS7003;57634;51.136;17.024;2023-06-24T18:16:27;8;8;5
70243;PMS7003;57634;51.136;17.024;2023-06-24T18:19:28;7;6;5
70243;PMS7003;57634;51.136;17.024;2023-06-24T18:22:29;8;8;5
70243;PMS7003;57634;51.136;17.024;2023-06-24T18:25:31;8;7;5
70243;PMS7003;57634;51.136;17.024;2023-06-24T18:28:32;8;8;6
70243;PMS7003;57634;51.136;17.024;2023-06-24T18:31:33;7;7;5
70243;PMS7003;57634;51.136;17.024;2023-06-24T18:34:34;9;8;6
70243;PMS7003;57634;51.136;17.024;2023-06-24T18:37:35;7;7;6
70243;PMS7003;57634;51.136;17.024;2023-06-24T18:40:38;7;7;5
70243;PMS7003;57634;51.136;17.024;2023-06-24T18:43:39;9;9;5
70243;PMS7003;57634;51.136;17.024;2023-06-24T18:47:09;9;8;6
70243;PMS7003;57634;51.136;17.024;2023-06-24T18:50:11;8;8;6
70243;PMS7003;57634;51.136;17.024;2023-06-24T18:53:12;10;8;6
70243;PMS7003;57634;51.136;17.024;2023-06-24T18:56:13;9;8;7
70243;PMS7003;57634;51.136;17.024;2023-06-24T18:59:15;10;9;6
70243;PMS7003;57634;51.136;17.024;2023-06-24T19:02:16;8;8;6
70243;PMS7003;57634;51.136;17.024;2023-06-24T19:05:17;11;10;8
70243;PMS7003;57634;51.136;17.024;2023-06-24T19:08:18;12;11;8
70243;PMS7003;57634;51.136;17.024;2023-06-24T19:11:19;11;11;9
70243;PMS7003;57634;51.136;17.024;2023-06-24T19:14:22;13;13;9
70243;PMS7003;57634;51.136;17.024;2023-06-24T19:17:24;18;17;12
70243;PMS7003;57634;51.136;17.024;2023-06-24T19:20:25;19;18;13
70243;PMS7003;57634;51.136;17.024;2023-06-24T19:23:26;14;14;11
70243;PMS7003;57634;51.136;17.024;2023-06-24T19:26:27;11;11;9
70243;PMS7003;57634;51.136;17.024;2023-06-24T19:29:56;14;14;10
70243;PMS7003;57634;51.136;17.024;2023-06-24T19:32:58;14;14;9
70243;PMS7003;57634;51.136;17.024;2023-06-24T19:35:59;13;13;10
70243;PMS7003;57634;51.136;17.024;2023-06-24T19:39:01;13;12;9
70243;PMS7003;57634;51.136;17.024;2023-06-24T19:42:02;15;14;11
70243;PMS7003;57634;51.136;17.024;2023-06-24T19:45:04;15;15;11
70243;PMS7003;57634;51.136;17.024;2023-06-24T19:48:06;13;13;10
70243;PMS7003;57634;51.136;17.024;2023-06-24T19:51:07;12;12;10
70243;PMS7003;57634;51.136;17.024;2023-06-24T19:54:08;12;12;9
70243;PMS7003;57634;51.136;17.024;2023-06-24T19:57:09;13;12;10
70243;PMS7003;57634;51.136;17.024;2023-06-24T20:00:10;13;12;9
70243;PMS7003;57634;51.136;17.024;2023-06-24T20:03:12;17;13;9
70243;PMS7003;57634;51.136;17.024;2023-06-24T20:06:13;18;14;11
70243;PMS7003;57634;51.136;17.024;2023-06-24T20:09:14;17;17;12
70243;PMS7003;57634;51.136;17.024;2023-06-24T20:12:44;16;16;12
70243;PMS7003;57634;51.136;17.024;2023-06-24T20:15:46;13;13;10
70243;PMS7003;57634;51.136;17.024;2023-06-24T20:18:48;12;12;9
70243;PMS7003;57634;51.136;17.024;2023-06-24T20:21:51;14;12;9
70243;PMS7003;57634;51.136;17.024;2023-06-24T20:24:52;15;14;11
70243;PMS7003;57634;51.136;17.024;2023-06-24T20:27:54;11;11;8
70243;PMS7003;57634;51.136;17.024;2023-06-24T20:30:55;11;11;10
70243;PMS7003;57634;51.136;17.024;2023-06-24T20:34:03;15;13;10
70243;PMS7003;57634;51.136;17.024;2023-06-24T20:37:04;14;14;9
70243;PMS7003;57634;51.136;17.024;2023-06-24T20:40:06;15;13;9